Central Sonoma County Latest

37 Stations

15 Minute Data | America/Los_Angeles
as of 9/6/26 9:59 AM PDT
Station Date Time Temp (°F) RH (%) Dew Pt (°F) Wind Spd (mph) Wind Dir (°) Wind Gust (mph) Latest Rain (In) Daily Rain (In) Daily Max Temp (°F) Daily Min Temp (°F)
Windsor-NW (Ranch 8) 9/6/26 0945 54.7   5.6 86   3 50.8   4.4 0.0   0.0 SW | 235 0.0   0.0 0.00 0.00 54.7   6.3 49.1   1.7
Windsor-East (Ranch 16) 9/6/26 0945 58.2   4.3 78   7 51.2   1.7 2.3   0.7 SSW | 210 6.6   2.7 0.00 0.00 58.6   4.2 41.8   2.3
Mark West-North (Ranch 14) 9/6/26 0945 58.7   3.3 75   3 50.8   2.2 1.1   0.1 SSW | 196 3.3   0.0 0.00 0.00 60.0   3.5 45.9   0.7
Windsor-SE (Silk Rd) 9/6/26 0945 55.4   2.5 99   1 55.2   2.4 0.8   0.1 SSW | 211 3.5   0.6 0.00 0.00 56.2   2.6 45.7   0.8
Fulton-NW (Ranch 5) 9/6/26 0945 56.7   3.2 70   9 35.8   17.5 1.2   1.4 ESE | 110 3.0   2.9 0.00 0.00 57.8   2.8 45.5   0.7
Bisordi (Fulton) 9/6/26 0945 55.0   5.7 98   15 54.3   1.0 1.4   0.4 SSW | 200 3.7   0.1 0.00 0.00 55.0   5.7 43.4   0.0
Windsor-South (Laughlin Rd) 9/6/26 0945 55.8   3.0 79   8 36.2   18.8 - - - 0.00 0.00 56.6   3.3 49.3   1.6
Fulton-SE (Barnes Rd) 9/6/26 0945 54.9   4.9 91   13 52.3   0.6 0.6   1.0 S | 175 3.5   1.2 0.00 0.00 54.9   5.1 46.0   0.3
Fulton-SW (Ranch 21) 9/6/26 0945 56.1   2.9 19   63 -36.2   89.8 1.5   0.6 WSW | 256 3.9   0.7 0.00 0.00 56.5   3.8 47.0   0.5
NW Santa Rosa (Piner Road) 9/6/26 0930 53.9   3.6 100   0 53.9   3.6 1.0   0.2 SW | 218 2.8   0.5 0.00 0.00 54.2   4.2 46.0   0.5
River Rd South (Denner Ranch) 9/6/26 0945 52.9   4.2 0   0 -65.8   5.4 1.6   0.6 SSW | 201 3.3   0.0 - - 53.5   4.8 46.3   1.4
West Santa Rosa (LOV Vineyard) 8/26/26 0900 53.3   5.2 97   6 52.4   3.5 1.0   0.1 SW | 224 3.6   0.0 0.00 0.00 53.6   5.2 50.2   1.8
Guerneville Rd (Prokopakis) 9/6/26 0945 55.9   2.2 93   6 54.0   0.5 - - - 0.00 0.00 56.7   2.5 46.0   1.0
SunnyView Vineyard (SCWC) 9/6/26 0945 55.4   4.3 94   18 53.8   1.5 1.3   0.6 ENE | 64 3.4   1.5 0.00 0.00 56.6   3.9 44.2   0.8
Guerneville Rd West (Balletto) 9/6/26 0945 54.1   2.4 99   2 53.8   1.9 1.5   0.7 WNW | 285 3.0   2.1 0.00 0.00 54.3   2.7 46.6   0.8
Sanchietti Ranch 9/6/26 0945 54.6   2.5 96   1 53.6   2.6 1.1   0.1 SSW | 210 2.6   1.3 0.00 0.00 55.0   2.3 47.4   0.6
Occidental Rd (Sebastopol) 9/6/26 0945 54.5   3.0 100   0 54.5   3.1 0.9   0.8 WSW | 258 3.1   1.3 0.00 0.00 54.9   3.6 46.6   0.8
Harper's Rest (Windsor-West) 9/6/26 0945 62.1   1.1 66   7 50.5   3.8 1.7   0.4 ENE | 63 3.6   0.0 0.00 0.00 63.7   0.8 46.8   0.0
Lower Westside Rd (Ranch 12) 9/6/26 0945 56.9   3.6 83   2 51.7   4.1 1.1   0.1 SW | 217 4.1   1.1 0.00 0.00 57.8   3.5 46.6   1.5
Guerneville (Laughlin Rd) 9/6/26 0945 59.6   1.2 75   1 51.6   1.6 0.6   0.1 S | 186 2.0   0.1 0.00 0.00 59.6   1.2 47.3   1.5
Korbel (Winery) 9/6/26 0945 58.3   2.8 86   9 54.3   0.3 0.4   0.1 E | 100 2.1   0.2 0.00 0.00 58.3   2.8 49.9   0.4
Forestville (Shone Farms) 9/6/26 0945 56.9   4.9 86   11 52.6   1.0 1.8   0.8 SSW | 207 4.5   1.3 0.00 0.00 58.9   4.4 48.0   1.1
Forestville-NE (Ranch 30) 9/6/26 0945 56.8   5.8 95   12 55.4   2.1 1.6   1.0 SSE | 150 3.8   1.2 0.00 0.00 56.8   5.8 46.6   1.8
Foggy Bend (Ranch 41) 9/6/26 0945 54.6   4.2 96   2 53.4   3.7 1.3   0.4 WSW | 250 4.0   1.5 0.00 0.00 55.4   4.6 47.2   1.3
Last Stop 9/6/26 0945 53.7   7.0 98   17 53.0   1.7 1.5   0.2 SW | 234 3.9   0.1 0.00 0.00 53.7   7.0 45.8   1.6
Green Valley Vineyard 9/6/26 0945 53.3   7.9 98   24 52.8   0.3 0.8   0.1 NNW | 342 2.4   1.8 0.00 0.00 53.9   8.5 46.6   0.4
Park Royal 9/6/26 0945 55.5   2.4 94   5 53.8   1.0 - - - 0.00 0.00 56.6   2.5 48.5   1.1
Merino 9/6/26 0945 55.1   2.2 100   1 55.1   1.9 1.3   0.0 SW | 235 4.2   0.4 0.00 0.00 55.3   3.0 44.6   0.7
Green Valley (Sanchietti) 9/6/26 0945 54.9   8.6 - - - - - - - 55.7   9.5 42.3   0.9
Keefer Ranch (Green Valley) 9/6/26 0945 53.5   6.2 98   13 52.9   2.1 - - - 0.00 0.00 53.5   6.2 44.9   1.4
Graton-West (Dutton Ranch) 9/6/26 0945 54.4   7.7 100   0 54.5   7.7 1.4   0.1 WNW | 302 3.3   0.5 0.00 0.00 55.2   8.3 44.8   0.9
Graton-South (Mill Station Rd) 9/6/26 0945 53.3   5.5 99   8 52.9   3.2 0.0   0.0 WSW | 237 1.7   1.7 0.00 0.00 53.8   6.3 43.4   1.5
Occidental (Horseshoe Bend) 9/6/26 0945 58.3   3.8 83   8 53.1   0.9 - - - 0.00 0.00 58.9   4.2 49.2   2.0
Sexton Valley (Jacqueline's Blk) 9/6/26 0945 54.3   8.5 99   23 54.0   1.0 0.6   0.6 N | 352 2.3   0.6 0.00 0.00 54.5   9.0 42.8   0.2
Sebastopol Hills (Burnside Rd) 9/6/26 0945 53.0   4.8 100   9 53.0   2.1 0.0   0.5 ENE | 67 1.1   1.4 0.00 0.00 53.5   4.8 49.2   0.6
Pleasant Hill 9/6/26 0945 55.7   11.9 96   35 54.5   0.8 1.5   0.7 NE | 55 4.1   0.8 0.00 0.00 56.2   11.8 46.4   0.1
Seaview/Fort Ross (Hirsch) 9/6/26 0945 57.7   0.4 64   12 45.8   4.9 5.2   1.4 N | 355 8.2   2.6 0.00 0.00 57.8   0.3 51.9   1.3
Max     62.1 100 55.4 5.2 - 8.2 0.00 0.00 63.7 51.9
Avg     55.7 85 46.1 1.2 - 3.4 0.00 - - -
Min     52.9 0 -65.8 0.0 - 0.0 0.00 0.00 53.5 41.8